createdAt,value
2022-09-09T03:58:39.828Z,59.78
2022-09-09T03:59:38.168Z,59.69
2022-09-09T04:00:39.793Z,59.78
2022-09-09T04:01:39.787Z,60.07
2022-09-09T04:02:39.852Z,59.97
2022-09-09T04:03:39.769Z,59.88
2022-09-09T04:04:39.767Z,60.27
2022-09-09T04:05:39.773Z,60.46
2022-09-09T04:06:39.781Z,60.46
2022-09-09T04:07:39.769Z,60.36
2022-09-09T04:08:39.790Z,60.65
2022-09-09T04:09:39.770Z,60.36
2022-09-09T04:10:39.773Z,60.36
2022-09-09T04:11:38.102Z,60.65
2022-09-09T04:12:39.774Z,60.65
2022-09-09T04:13:39.794Z,60.68
2022-09-09T04:14:39.789Z,60.68
2022-09-09T04:15:39.795Z,60.87
2022-09-09T04:16:39.835Z,60.65
2022-09-09T04:17:39.790Z,60.87
2022-09-09T04:18:39.802Z,60.87
2022-09-09T04:19:39.778Z,60.87
2022-09-09T04:20:39.798Z,60.77
2022-09-09T04:21:39.793Z,60.77
2022-09-09T04:22:38.056Z,60.77
2022-09-09T04:23:39.299Z,60.77
2022-09-09T04:24:38.062Z,60.77
2022-09-09T04:25:38.061Z,60.58
2022-09-09T04:26:38.049Z,60.49
2022-09-09T04:27:38.045Z,60.77
2022-09-09T04:28:39.813Z,60.77
2022-09-09T04:29:38.060Z,60.87
2022-09-09T04:30:38.071Z,60.77
2022-09-09T04:31:38.106Z,60.77
2022-09-09T04:32:39.837Z,60.77
2022-09-09T04:33:40.603Z,60.97
2022-09-09T04:34:39.812Z,60.49
2022-09-09T04:35:39.806Z,60.97
2022-09-09T04:36:39.798Z,60.80
2022-09-09T04:37:39.800Z,60.71
2022-09-09T04:38:38.133Z,60.77
2022-09-09T04:39:39.840Z,60.90
2022-09-09T04:40:39.851Z,60.87
2022-09-09T04:41:39.813Z,60.71
2022-09-09T04:42:39.791Z,60.61
2022-09-09T04:43:39.800Z,60.71
2022-09-09T04:44:39.802Z,60.61
2022-09-09T04:45:39.864Z,60.61
2022-09-09T04:46:39.817Z,60.61
2022-09-09T04:47:39.800Z,60.61
2022-09-09T04:48:39.837Z,60.61
2022-09-09T04:49:37.991Z,60.52
2022-09-09T04:50:39.806Z,60.52
2022-09-09T04:51:39.826Z,60.52
2022-09-09T04:52:39.817Z,60.42
2022-09-09T04:53:39.823Z,60.42
2022-09-09T04:54:39.822Z,60.71
2022-09-09T04:55:37.972Z,60.42
2022-09-09T04:56:39.822Z,60.32
2022-09-09T04:57:37.960Z,60.52
2022-09-09T04:58:39.821Z,60.42
2022-09-09T04:59:39.811Z,60.52
2022-09-09T05:00:39.898Z,60.52
2022-09-09T05:01:39.904Z,60.23
2022-09-09T05:02:38.011Z,60.42
2022-09-09T05:03:38.945Z,60.52
2022-09-09T05:04:39.825Z,60.13
2022-09-09T05:05:37.951Z,60.23
2022-09-09T05:06:39.820Z,60.23
2022-09-09T05:07:37.938Z,60.23
2022-09-09T05:08:37.958Z,59.94
2022-09-09T05:09:39.818Z,60.03
2022-09-09T05:10:39.355Z,60.32
2022-09-09T05:11:37.959Z,60.23
2022-09-09T05:12:39.829Z,60.03
2022-09-09T05:13:41.471Z,60.42
2022-09-09T05:14:38.917Z,60.13
2022-09-09T05:15:39.826Z,60.32
2022-09-09T05:16:39.901Z,60.03
2022-09-09T05:17:39.836Z,60.03
2022-09-09T05:18:39.839Z,60.32
2022-09-09T05:19:39.849Z,60.45
2022-09-09T05:20:39.881Z,60.42
2022-09-09T05:21:39.844Z,60.52
2022-09-09T05:22:39.830Z,60.45
2022-09-09T05:23:39.854Z,60.45
2022-09-09T05:24:39.842Z,60.45
2022-09-09T05:25:39.851Z,60.35
2022-09-09T05:26:39.852Z,60.35
2022-09-09T05:27:37.877Z,60.16
2022-09-09T05:28:37.961Z,60.35
2022-09-09T05:29:37.880Z,60.16
2022-09-09T05:30:39.855Z,60.26
2022-09-09T05:31:38.929Z,60.16
2022-09-09T05:32:38.883Z,60.16
2022-09-09T05:33:37.877Z,60.16
2022-09-09T05:34:39.895Z,60.26
2022-09-09T05:35:39.864Z,60.26
2022-09-09T05:36:38.855Z,60.16
2022-09-09T05:37:39.365Z,60.06
2022-09-09T05:38:39.024Z,60.26
2022-09-09T05:39:39.438Z,60.26
2022-09-09T05:40:39.362Z,60.06
2022-09-09T05:41:39.376Z,60.26
2022-09-09T05:42:39.378Z,60.16
2022-09-09T05:43:39.436Z,60.26
2022-09-09T05:44:38.920Z,60.26
2022-09-09T05:45:39.403Z,60.35
2022-09-09T05:46:37.933Z,60.16
2022-09-09T05:47:44.869Z,60.16
2022-09-09T05:48:38.832Z,60.16
2022-09-09T05:49:37.830Z,60.16
2022-09-09T05:50:39.374Z,60.26
2022-09-09T05:51:41.885Z,60.16
2022-09-09T05:52:37.825Z,60.16
2022-09-09T05:53:40.251Z,60.35
2022-09-09T05:54:52.668Z,60.26
2022-09-09T05:55:45.623Z,60.16
2022-09-09T05:56:38.615Z,60.06
2022-09-09T05:57:37.976Z,60.26
2022-09-09T05:58:46.699Z,59.97
2022-09-09T05:59:38.466Z,60.16
2022-09-09T06:00:52.421Z,59.97
2022-09-09T06:01:37.985Z,59.97
2022-09-09T06:02:38.596Z,59.87
2022-09-09T06:03:38.087Z,59.97
2022-09-09T06:04:37.857Z,59.97
2022-09-09T06:05:39.840Z,59.87
2022-09-09T06:06:39.466Z,60.06
2022-09-09T06:07:39.397Z,59.78
2022-09-09T06:08:40.691Z,59.78
2022-09-09T06:09:37.787Z,60.48
2022-09-09T06:10:40.650Z,60.16
2022-09-09T06:11:41.381Z,60.19
2022-09-09T06:12:39.378Z,60.26
2022-09-09T06:13:39.642Z,60.38
2022-09-09T06:14:42.070Z,60.38
2022-09-09T06:15:40.836Z,60.00
2022-09-09T06:16:40.483Z,60.10
2022-09-09T06:17:39.379Z,59.80
2022-09-09T06:18:39.663Z,60.28
2022-09-09T06:19:39.410Z,60.28
2022-09-09T06:20:39.404Z,60.00
2022-09-09T06:21:39.966Z,60.28
2022-09-09T06:22:38.004Z,60.00
2022-09-09T06:23:39.956Z,60.00
2022-09-09T06:24:39.390Z,60.38
2022-09-09T06:25:40.488Z,59.90
2022-09-09T06:26:39.410Z,60.19
2022-09-09T06:27:38.047Z,59.90
2022-09-09T06:28:39.387Z,59.71
2022-09-09T06:29:39.405Z,59.80
2022-09-09T06:30:37.768Z,59.90
2022-09-09T06:31:38.790Z,59.90
2022-09-09T06:32:41.462Z,60.10
2022-09-09T06:33:39.024Z,60.10
2022-09-09T06:34:38.709Z,60.00
2022-09-09T06:35:37.805Z,59.80
2022-09-09T06:36:42.700Z,59.90
2022-09-09T06:37:41.952Z,59.90
2022-09-09T06:38:37.801Z,59.90
2022-09-09T06:39:37.820Z,59.90
2022-09-09T06:40:39.400Z,60.00
2022-09-09T06:41:42.726Z,60.10
2022-09-09T06:42:39.685Z,60.00
2022-09-09T06:43:38.513Z,59.80
2022-09-09T06:44:37.706Z,60.03
2022-09-09T06:45:39.437Z,60.03
2022-09-09T06:46:37.767Z,60.03
2022-09-09T06:47:39.482Z,59.93
2022-09-09T06:48:37.981Z,59.93
2022-09-09T06:49:38.275Z,59.93
2022-09-09T06:50:39.422Z,59.74
2022-09-09T06:53:02.715Z,59.55
2022-09-09T06:54:02.627Z,59.64
2022-09-09T06:55:03.635Z,59.55
2022-09-09T06:56:55.897Z,59.35
2022-09-09T06:57:56.900Z,59.38
2022-09-09T06:58:54.403Z,59.48
2022-09-09T06:59:54.306Z,59.67
2022-09-09T07:00:54.359Z,59.67
2022-09-09T07:01:56.007Z,59.28
2022-09-09T07:02:55.907Z,59.38
2022-09-09T07:03:54.277Z,59.28
2022-09-09T07:04:54.327Z,59.48
2022-09-09T07:05:55.908Z,59.48
2022-09-09T07:06:55.968Z,59.77
2022-09-09T07:07:54.317Z,59.86
2022-09-09T07:08:59.028Z,59.67
2022-09-09T07:09:54.260Z,59.38
2022-09-09T07:10:56.946Z,59.28
2022-09-09T07:11:55.912Z,59.48
2022-09-09T07:12:54.486Z,59.77
2022-09-09T07:13:55.923Z,59.77
2022-09-09T07:15:10.121Z,59.67
2022-09-09T07:15:55.972Z,59.67
2022-09-09T07:16:59.427Z,59.67
2022-09-09T07:17:58.716Z,59.67
2022-09-09T07:18:55.999Z,59.67
2022-09-09T07:19:56.046Z,59.48
2022-09-09T07:20:55.975Z,59.67
2022-09-09T07:21:56.189Z,59.58
2022-09-09T07:22:55.986Z,59.38
2022-09-09T07:23:55.642Z,59.60
2022-09-09T07:24:57.938Z,59.70
2022-09-09T07:25:55.909Z,59.60
2022-09-09T07:26:55.912Z,59.67
2022-09-09T07:27:56.943Z,59.60
2022-09-09T07:28:56.081Z,59.70
2022-09-09T07:29:56.012Z,59.70
2022-09-09T07:30:54.351Z,59.70
2022-09-09T07:31:54.885Z,59.51
2022-09-09T07:32:54.491Z,59.51
2022-09-09T07:34:03.632Z,59.60
2022-09-09T07:34:54.830Z,59.70
2022-09-09T07:35:55.748Z,59.70
2022-09-09T07:36:55.959Z,59.70
2022-09-09T07:37:54.305Z,59.80
2022-09-09T07:38:54.352Z,59.70
2022-09-09T07:39:54.299Z,59.80
2022-09-09T07:40:54.271Z,59.80
2022-09-09T07:41:54.330Z,59.70
2022-09-09T07:42:57.127Z,59.70
2022-09-09T07:43:58.498Z,59.80
2022-09-09T07:44:54.308Z,59.80
2022-09-09T07:45:54.419Z,59.80
2022-09-09T07:46:54.275Z,59.80
2022-09-09T07:47:56.045Z,59.80
2022-09-09T07:48:54.219Z,59.41
2022-09-09T07:49:54.985Z,59.31
2022-09-09T07:51:08.954Z,59.41
2022-09-09T07:52:18.107Z,59.89
2022-09-09T07:52:54.255Z,59.51
2022-09-09T07:53:56.017Z,59.41
2022-09-09T07:54:54.236Z,59.70
2022-09-09T07:55:56.136Z,59.41
2022-09-09T07:56:54.281Z,59.44
2022-09-09T07:57:58.461Z,59.51
2022-09-09T07:58:58.435Z,59.41
2022-09-09T07:59:54.946Z,59.53
2022-09-09T08:00:54.210Z,59.25
2022-09-09T08:01:54.389Z,59.70
2022-09-09T08:02:55.996Z,59.63
2022-09-09T08:03:56.656Z,59.15
2022-09-09T08:04:55.352Z,59.25
2022-09-09T08:05:55.216Z,59.53
2022-09-09T08:06:56.580Z,59.44
2022-09-09T08:07:58.534Z,59.53
2022-09-09T08:09:17.451Z,59.44
2022-09-09T08:09:56.566Z,59.53
2022-09-09T08:10:54.398Z,59.44
2022-09-09T08:11:55.591Z,59.44
2022-09-09T08:13:14.715Z,59.34
2022-09-09T08:14:00.221Z,59.56
2022-09-09T08:14:56.102Z,59.05
2022-09-09T08:15:56.809Z,59.18
2022-09-09T08:16:59.335Z,59.28
2022-09-09T08:17:56.308Z,59.18
2022-09-09T08:18:54.558Z,59.28
2022-09-09T08:20:19.083Z,59.47
2022-09-09T08:23:02.950Z,59.28
2022-09-09T08:24:06.293Z,59.08
2022-09-09T08:25:05.423Z,59.28
2022-09-09T08:25:58.967Z,59.18
2022-09-09T08:26:59.465Z,59.38
2022-09-09T08:27:57.852Z,59.28
2022-09-09T08:29:01.527Z,59.31
2022-09-09T08:30:00.491Z,59.01
2022-09-09T08:30:59.500Z,58.92
2022-09-09T08:31:57.688Z,59.31
2022-09-09T08:32:57.803Z,58.92
2022-09-09T08:33:57.704Z,58.92
2022-09-09T08:35:01.663Z,59.31
2022-09-09T08:35:59.467Z,58.92
2022-09-09T08:36:57.708Z,59.21
2022-09-09T08:37:57.685Z,58.82
2022-09-09T08:38:57.685Z,59.11
2022-09-09T08:39:59.504Z,59.21
2022-09-09T08:40:59.328Z,58.72
2022-09-09T08:41:57.845Z,58.72
2022-09-09T08:42:57.722Z,58.95
2022-09-09T08:43:57.739Z,58.92
2022-09-09T08:44:59.482Z,59.14
2022-09-09T08:46:02.710Z,59.01
2022-09-09T08:46:57.726Z,58.85
2022-09-09T08:47:57.705Z,59.14
2022-09-09T08:48:57.713Z,59.05
2022-09-09T08:50:00.368Z,59.05
2022-09-09T08:51:58.470Z,58.56
2022-09-09T08:53:06.271Z,59.14
2022-09-09T08:53:59.800Z,58.85
2022-09-09T08:54:59.538Z,58.85
2022-09-09T08:56:00.183Z,58.69
2022-09-09T08:56:59.541Z,58.98
2022-09-09T08:59:00.518Z,58.49
2022-09-09T08:59:57.740Z,58.88
2022-09-09T09:00:57.717Z,58.49
2022-09-09T09:02:00.046Z,58.69
2022-09-09T09:03:00.628Z,58.30
2022-09-09T09:04:00.478Z,58.20
2022-09-09T09:04:59.572Z,58.78
2022-09-09T09:05:59.465Z,58.69
2022-09-09T09:06:59.458Z,58.69
2022-09-09T09:07:59.466Z,58.69
2022-09-09T09:08:57.802Z,58.49
2022-09-09T09:09:59.583Z,58.69
2022-09-09T09:11:00.448Z,58.39
2022-09-09T09:11:59.477Z,58.49
2022-09-09T09:12:59.447Z,58.49
2022-09-09T09:13:59.447Z,58.11
2022-09-09T09:14:59.465Z,58.33
2022-09-09T09:15:59.574Z,58.62
2022-09-09T09:16:59.463Z,58.52
2022-09-09T09:17:59.457Z,58.42
2022-09-09T09:18:59.502Z,58.62
2022-09-09T09:19:59.459Z,58.42
2022-09-09T09:20:59.455Z,58.42
2022-09-09T09:21:59.495Z,58.62
2022-09-09T09:22:59.499Z,58.62
2022-09-09T09:23:59.224Z,58.42
2022-09-09T09:25:00.020Z,58.42
2022-09-09T09:26:00.760Z,58.42
2022-09-09T09:27:00.516Z,58.42
2022-09-09T09:28:03.216Z,58.33
2022-09-09T09:30:21.475Z,58.23
2022-09-09T09:30:58.568Z,58.36
2022-09-09T09:34:38.754Z,58.45
2022-09-09T09:35:37.401Z,58.26
2022-09-09T09:36:32.915Z,58.55
2022-09-09T09:37:33.018Z,58.06
2022-09-09T09:40:32.942Z,58.26
2022-09-09T09:41:33.369Z,58.00
2022-09-09T09:42:31.545Z,58.19
2022-09-09T09:43:34.110Z,58.29
2022-09-09T09:44:31.184Z,58.29
2022-09-09T09:45:31.606Z,57.90
2022-09-09T09:46:31.281Z,58.19
2022-09-09T09:47:36.347Z,58.03
2022-09-09T09:48:32.927Z,58.12
2022-09-09T09:49:31.247Z,58.22
2022-09-09T09:50:32.893Z,58.12
2022-09-09T09:51:34.915Z,58.31
2022-09-09T09:52:31.222Z,58.22
2022-09-09T09:53:31.203Z,58.22
2022-09-09T09:54:31.190Z,58.22
2022-09-09T09:55:32.898Z,58.22
2022-09-09T09:56:32.885Z,57.93
2022-09-09T09:57:32.267Z,58.12
2022-09-09T09:58:32.967Z,58.25
2022-09-09T09:59:40.034Z,58.15
2022-09-09T10:00:32.903Z,58.05
2022-09-09T10:01:31.259Z,58.25
2022-09-09T10:02:31.225Z,58.25
2022-09-09T10:13:40.490Z,57.54
2022-09-09T10:14:40.969Z,57.34
2022-09-09T10:15:39.485Z,57.54
2022-09-09T10:16:40.968Z,57.64
2022-09-09T10:17:40.430Z,57.54
2022-09-09T10:18:40.473Z,57.44
2022-09-09T10:19:39.366Z,57.64
2022-09-09T10:20:39.369Z,57.54
2022-09-09T10:21:39.370Z,57.34
2022-09-09T10:22:39.568Z,57.73
2022-09-09T10:23:41.000Z,57.54
2022-09-09T10:24:40.979Z,57.54
2022-09-09T10:25:41.976Z,57.51
2022-09-09T10:26:41.088Z,57.70
2022-09-09T10:27:40.964Z,57.73
2022-09-09T10:28:41.064Z,57.32
2022-09-09T10:30:48.154Z,57.44
2022-09-09T10:31:39.964Z,57.64
2022-09-09T10:32:46.054Z,57.73
2022-09-09T10:33:39.529Z,57.73
2022-09-09T10:34:42.012Z,57.83
2022-09-09T10:35:40.840Z,57.76
2022-09-09T10:36:43.060Z,57.76
2022-09-09T10:37:40.988Z,57.86
2022-09-09T10:38:40.978Z,57.76
2022-09-09T10:39:43.199Z,57.57
2022-09-09T10:40:41.048Z,57.67
2022-09-09T10:41:40.981Z,57.57
2022-09-09T10:42:39.393Z,57.37
2022-09-09T10:43:40.982Z,57.40
2022-09-09T10:44:45.985Z,57.50
2022-09-09T10:45:41.003Z,57.40
2022-09-09T10:46:55.080Z,57.31
2022-09-09T10:47:39.391Z,57.50
2022-09-09T10:48:39.408Z,57.40
2022-09-09T10:49:41.010Z,57.11
2022-09-09T10:51:00.395Z,57.40
2022-09-09T10:51:41.003Z,57.40
2022-09-09T10:52:39.411Z,57.14
2022-09-09T10:53:39.495Z,57.23
2022-09-09T10:54:39.402Z,57.23
2022-09-09T10:55:41.001Z,57.04
2022-09-09T10:56:41.021Z,56.95
2022-09-09T10:57:41.011Z,56.65
2022-09-09T10:58:41.016Z,57.23
2022-09-09T10:59:41.061Z,57.04
2022-09-09T11:00:41.028Z,57.17
2022-09-09T11:01:41.056Z,57.17
2022-09-09T11:02:41.052Z,57.26
2022-09-09T11:03:42.003Z,56.87
2022-09-09T11:04:39.417Z,57.07
2022-09-09T11:05:41.007Z,57.07
2022-09-09T11:06:41.080Z,56.97
2022-09-09T11:07:41.072Z,57.00
2022-09-09T11:08:41.071Z,56.51
2022-09-09T11:09:40.547Z,56.41
2022-09-09T11:10:39.435Z,56.25
2022-09-09T11:11:39.439Z,56.64
2022-09-09T11:12:41.122Z,56.35
2022-09-09T11:13:39.487Z,56.93
2022-09-09T11:14:40.223Z,56.47
2022-09-09T11:15:41.281Z,56.47
2022-09-09T11:16:47.683Z,55.89
2022-09-09T11:17:39.888Z,56.47
2022-09-09T11:18:43.206Z,56.01
2022-09-09T11:19:45.676Z,56.21
2022-09-09T11:20:39.463Z,56.50
2022-09-09T11:21:39.467Z,56.11
2022-09-09T11:22:39.488Z,56.23
2022-09-09T11:23:41.960Z,56.23
2022-09-09T11:24:41.044Z,56.23
2022-09-09T11:25:39.513Z,56.04
2022-09-09T11:26:39.498Z,55.77
2022-09-09T11:27:41.085Z,56.46
2022-09-09T11:28:39.609Z,56.85
2022-09-09T11:29:39.576Z,55.97
2022-09-09T11:30:56.872Z,56.10
2022-09-09T11:31:41.116Z,56.00
2022-09-09T11:32:39.545Z,55.80
2022-09-09T11:33:41.055Z,55.44
2022-09-09T11:34:41.083Z,55.63
2022-09-09T11:35:39.566Z,55.63
2022-09-09T11:36:41.044Z,55.15
2022-09-09T11:37:41.058Z,55.44
2022-09-09T11:38:39.538Z,55.54
2022-09-09T11:39:41.092Z,54.79
2022-09-09T11:40:41.055Z,54.79
2022-09-09T11:41:41.053Z,55.47
2022-09-09T11:42:41.068Z,55.08
2022-09-09T11:43:41.548Z,55.18
2022-09-09T11:44:41.562Z,54.59
2022-09-09T11:45:40.584Z,54.85
2022-09-09T11:46:41.630Z,54.98
2022-09-09T11:47:41.628Z,54.56
2022-09-09T11:48:41.553Z,54.49
2022-09-09T11:49:41.567Z,54.88
2022-09-09T11:50:39.591Z,54.69
2022-09-09T11:51:41.566Z,54.13
2022-09-09T11:52:41.584Z,54.32
2022-09-09T11:53:41.566Z,53.83
2022-09-09T11:54:41.562Z,54.22
2022-09-09T11:55:41.562Z,53.56
2022-09-09T11:56:39.625Z,54.15
2022-09-09T11:57:41.610Z,53.96
2022-09-09T11:58:41.567Z,53.96
2022-09-09T11:59:41.565Z,53.27
2022-09-09T12:00:41.591Z,53.49
2022-09-09T12:01:41.571Z,53.30
2022-09-09T12:02:41.598Z,53.39
2022-09-09T12:03:41.578Z,53.33
2022-09-09T12:04:41.624Z,53.03
2022-09-09T12:05:41.596Z,52.96
2022-09-09T12:06:41.585Z,53.16
2022-09-09T12:07:41.601Z,52.79
2022-09-09T12:08:41.598Z,52.59
2022-09-09T12:09:41.590Z,52.40
2022-09-09T12:10:41.581Z,52.00
2022-09-09T12:11:41.579Z,52.10
2022-09-09T12:12:43.976Z,52.30
2022-09-09T12:13:41.600Z,52.50
2022-09-09T12:14:41.586Z,52.30
2022-09-09T12:15:41.588Z,52.50
2022-09-09T12:16:41.627Z,52.08
2022-09-09T12:17:41.588Z,52.20
2022-09-09T12:18:41.608Z,52.08
2022-09-09T12:19:41.598Z,52.27
2022-09-09T12:20:41.605Z,51.95
2022-09-09T12:21:39.754Z,51.86
2022-09-09T12:22:41.617Z,52.15
2022-09-09T12:23:39.885Z,52.32
2022-09-09T12:24:39.772Z,52.25
2022-09-09T12:25:39.776Z,52.51
2022-09-09T12:26:41.615Z,52.42
2022-09-09T12:27:41.620Z,52.20
2022-09-09T12:28:39.796Z,52.59
2022-09-09T12:29:41.617Z,52.39
2022-09-09T12:30:41.679Z,52.37
2022-09-09T12:31:45.148Z,51.98
2022-09-09T12:32:41.607Z,52.66
2022-09-09T12:33:41.612Z,52.83
2022-09-09T12:34:41.641Z,52.05
2022-09-09T12:35:39.823Z,52.25
2022-09-09T12:36:41.613Z,53.00
2022-09-09T12:37:41.613Z,52.31
2022-09-09T12:38:41.615Z,52.70
2022-09-09T12:39:41.688Z,52.80
2022-09-09T12:40:41.613Z,52.61
2022-09-09T12:41:41.626Z,52.68
2022-09-09T12:42:41.640Z,52.78
2022-09-09T12:43:41.654Z,52.68
2022-09-09T12:44:41.644Z,53.14
2022-09-09T12:45:41.636Z,52.56
2022-09-09T12:46:41.645Z,53.14
2022-09-09T12:47:39.869Z,52.75
2022-09-09T12:48:39.980Z,52.66
2022-09-09T12:49:39.871Z,52.75
2022-09-09T12:50:41.639Z,52.66
2022-09-09T12:51:39.884Z,52.00
2022-09-09T12:52:39.888Z,52.19
2022-09-09T12:53:41.743Z,51.90
2022-09-09T12:54:39.873Z,50.98
2022-09-09T12:55:41.669Z,50.81
2022-09-09T12:56:39.885Z,50.90
2022-09-09T12:57:39.887Z,50.63
2022-09-09T12:58:41.650Z,50.46
2022-09-09T12:59:39.887Z,50.37
2022-09-09T13:00:39.895Z,49.99
2022-09-09T13:01:41.796Z,49.92
2022-09-09T13:02:40.038Z,49.82
2022-09-09T13:03:41.656Z,49.95
2022-09-09T13:04:39.916Z,49.65
2022-09-09T13:05:41.664Z,49.95
2022-09-09T13:06:40.673Z,50.61
2022-09-09T13:07:39.920Z,50.61
2022-09-09T13:08:41.659Z,49.95
2022-09-09T13:09:39.940Z,49.77
2022-09-09T13:11:01.859Z,49.21
2022-09-09T13:11:41.712Z,49.14
2022-09-09T13:12:39.948Z,49.04
2022-09-09T13:13:41.654Z,48.77
2022-09-09T13:14:41.674Z,48.79
2022-09-09T13:15:39.964Z,48.69
2022-09-09T13:16:43.107Z,48.89
2022-09-09T13:17:39.975Z,49.26
2022-09-09T13:18:41.659Z,49.73
2022-09-09T13:19:41.699Z,49.99
2022-09-09T13:20:41.711Z,50.09
2022-09-09T13:21:41.701Z,50.09
2022-09-09T13:22:41.697Z,50.27
2022-09-09T13:23:40.013Z,50.27
2022-09-09T13:24:41.679Z,50.54
2022-09-09T13:25:43.835Z,50.63
2022-09-09T13:26:41.680Z,50.63
2022-09-09T13:27:40.083Z,50.61
2022-09-09T13:28:41.670Z,50.71
2022-09-09T13:29:40.040Z,50.78
2022-09-09T13:30:40.093Z,50.98
2022-09-09T13:31:41.687Z,50.68
2022-09-09T13:32:41.673Z,50.32
2022-09-09T13:33:41.674Z,50.22
2022-09-09T13:34:41.676Z,50.42
2022-09-09T13:35:41.695Z,50.42
2022-09-09T13:36:41.686Z,50.02
2022-09-09T13:37:41.678Z,49.85
2022-09-09T13:38:41.678Z,49.29
2022-09-09T13:39:41.802Z,49.29
2022-09-09T13:40:41.711Z,49.31
2022-09-09T13:41:41.699Z,49.11
2022-09-09T13:42:41.736Z,48.55
2022-09-09T13:43:41.697Z,48.47
2022-09-09T13:44:41.778Z,48.40
2022-09-09T13:45:41.750Z,48.01
2022-09-09T13:46:41.759Z,48.03
2022-09-09T13:47:41.692Z,47.93
2022-09-09T13:48:41.752Z,47.56
2022-09-09T13:49:41.695Z,47.56
2022-09-09T13:50:41.786Z,47.78
2022-09-09T13:51:41.697Z,47.19
2022-09-09T13:52:41.810Z,47.31
2022-09-09T13:53:41.703Z,47.31
2022-09-09T13:54:42.868Z,47.24
2022-09-09T13:55:41.717Z,47.36
2022-09-09T13:56:41.778Z,46.97
2022-09-09T13:57:41.713Z,46.77
2022-09-09T13:58:41.728Z,46.69
2022-09-09T14:00:03.608Z,46.22
2022-09-09T14:00:41.773Z,46.69
2022-09-09T14:01:42.234Z,46.42
2022-09-09T14:02:40.292Z,46.74
2022-09-09T14:03:42.211Z,46.44
2022-09-09T14:04:43.304Z,46.44
2022-09-09T14:05:42.229Z,46.22
2022-09-09T14:06:42.298Z,46.34
2022-09-09T14:07:40.282Z,46.04
2022-09-09T14:08:42.337Z,46.17
2022-09-09T14:09:42.256Z,46.07
2022-09-09T14:10:42.370Z,45.79
2022-09-09T14:11:42.223Z,45.97
2022-09-09T14:12:42.287Z,45.87
2022-09-09T14:13:43.238Z,46.37
2022-09-09T14:14:42.265Z,46.37
2022-09-09T14:15:42.337Z,46.25
2022-09-09T14:16:42.283Z,46.25
2022-09-09T14:17:42.236Z,46.12
2022-09-09T14:18:42.254Z,46.50
2022-09-09T14:19:42.233Z,46.77
2022-09-09T14:20:42.270Z,46.77
2022-09-09T14:21:42.231Z,46.75
2022-09-09T14:22:42.262Z,47.51
2022-09-09T14:23:42.238Z,47.31
2022-09-09T14:24:42.239Z,47.29
2022-09-09T14:25:40.436Z,47.07
2022-09-09T14:26:42.253Z,47.07
2022-09-09T14:27:41.301Z,47.54
2022-09-09T14:28:54.694Z,47.74
2022-09-09T14:29:40.465Z,47.42
2022-09-09T14:30:40.496Z,47.49
2022-09-09T14:31:42.462Z,47.69
2022-09-09T14:32:40.476Z,47.79
2022-09-09T14:33:40.482Z,47.69
2022-09-09T14:34:42.265Z,47.69
2022-09-09T14:35:41.485Z,47.39
2022-09-09T14:36:40.501Z,47.10
2022-09-09T14:37:42.408Z,46.71
2022-09-09T14:38:41.520Z,47.25
2022-09-09T14:39:42.311Z,47.05
2022-09-09T14:40:41.529Z,47.22
2022-09-09T14:41:40.527Z,46.91
2022-09-09T14:42:40.548Z,47.00
2022-09-09T14:43:40.545Z,47.57
2022-09-09T14:44:42.277Z,47.45
2022-09-09T14:45:41.616Z,47.64
2022-09-09T14:46:40.556Z,47.62
2022-09-09T14:47:42.611Z,48.01
2022-09-09T14:48:40.619Z,47.89
2022-09-09T14:49:45.075Z,48.09
2022-09-09T14:50:41.782Z,48.28
2022-09-09T14:51:40.590Z,48.36
2022-09-09T14:52:41.587Z,48.46
2022-09-09T14:53:40.588Z,48.43
2022-09-09T14:54:43.278Z,48.70
2022-09-09T14:55:41.807Z,48.70
2022-09-09T14:56:40.603Z,48.90
2022-09-09T14:57:42.494Z,48.87
2022-09-09T14:58:43.278Z,48.97
2022-09-09T14:59:40.659Z,49.16
2022-09-09T15:00:41.796Z,49.04
2022-09-09T15:01:42.575Z,49.24
2022-09-09T15:02:40.747Z,49.12
2022-09-09T15:03:40.640Z,49.41
2022-09-09T15:04:42.315Z,49.22
2022-09-09T15:05:42.592Z,49.49
2022-09-09T15:06:42.303Z,49.68
2022-09-09T15:07:42.287Z,49.56
2022-09-09T15:08:42.746Z,49.46
2022-09-09T15:09:42.323Z,49.66
2022-09-09T15:10:42.290Z,49.76
2022-09-09T15:11:42.343Z,49.73
2022-09-09T15:12:42.289Z,50.12
2022-09-09T15:13:42.347Z,49.73
2022-09-09T15:14:42.295Z,49.63
2022-09-09T15:15:42.360Z,49.71
2022-09-09T15:16:42.296Z,50.48
2022-09-09T15:17:42.301Z,50.19
2022-09-09T15:18:42.306Z,49.97
2022-09-09T15:19:40.773Z,50.07
2022-09-09T15:20:42.329Z,50.16
2022-09-09T15:21:40.817Z,50.65
2022-09-09T15:22:42.305Z,50.36
2022-09-09T15:23:42.320Z,50.34
2022-09-09T15:24:42.324Z,50.34
2022-09-09T15:25:42.318Z,50.53
2022-09-09T15:26:42.320Z,50.34
2022-09-09T15:27:40.720Z,50.63
2022-09-09T15:28:40.686Z,50.82
2022-09-09T15:29:40.693Z,50.34
2022-09-09T15:30:40.729Z,50.53
2022-09-09T15:31:42.326Z,51.02
2022-09-09T15:32:40.695Z,51.02
2022-09-09T15:33:40.742Z,50.34
2022-09-09T15:34:40.706Z,50.63
2022-09-09T15:35:41.362Z,50.82
2022-09-09T15:36:42.334Z,50.80
2022-09-09T15:37:40.716Z,50.73
2022-09-09T15:38:42.320Z,50.60
2022-09-09T15:39:42.371Z,50.51
2022-09-09T15:40:42.326Z,50.60
2022-09-09T15:41:42.341Z,51.19
2022-09-09T15:42:42.353Z,50.60
2022-09-09T15:43:42.326Z,50.41
2022-09-09T15:44:42.328Z,50.90
2022-09-09T15:45:42.350Z,50.51
2022-09-09T15:46:42.345Z,50.70
2022-09-09T15:47:42.337Z,50.70
2022-09-09T15:48:42.337Z,50.90
2022-09-09T15:49:42.359Z,50.87
2022-09-09T15:50:42.337Z,50.90
2022-09-09T15:51:43.889Z,50.58
2022-09-09T15:52:42.358Z,51.17
2022-09-09T15:53:42.349Z,51.26
2022-09-09T15:54:42.346Z,51.26
2022-09-09T15:55:42.360Z,51.26
2022-09-09T15:56:42.385Z,51.17
2022-09-09T15:57:42.399Z,51.75
2022-09-09T15:58:42.341Z,50.97
2022-09-09T15:59:42.356Z,51.65
2022-09-09T16:00:42.367Z,51.53
2022-09-09T16:12:57.700Z,51.40
2022-09-09T16:13:56.135Z,51.40
2022-09-09T16:14:56.115Z,51.31
2022-09-09T16:15:56.229Z,51.70
2022-09-09T16:16:57.688Z,51.48
2022-09-09T16:17:56.119Z,51.67
2022-09-09T16:18:56.109Z,51.67
2022-09-09T16:19:56.125Z,51.67
2022-09-09T16:20:56.122Z,51.48
2022-09-09T16:21:57.671Z,51.67
2022-09-09T16:22:56.105Z,51.38
2022-09-09T16:23:56.117Z,51.87
2022-09-09T16:24:57.678Z,51.48
2022-09-09T16:25:57.134Z,51.97
2022-09-09T16:26:57.677Z,51.48
2022-09-09T16:27:56.124Z,51.57
2022-09-09T16:28:56.129Z,52.03
2022-09-09T16:29:57.689Z,51.67
2022-09-09T16:30:56.139Z,51.65
2022-09-09T16:31:58.736Z,52.13
2022-09-09T16:32:56.111Z,52.13
2022-09-09T16:33:57.688Z,52.33
2022-09-09T16:34:57.674Z,52.52
2022-09-09T16:35:57.673Z,51.84
2022-09-09T16:36:57.674Z,52.81
2022-09-09T16:37:57.685Z,52.72
2022-09-09T16:38:57.708Z,51.84
2022-09-09T16:39:57.162Z,52.72
2022-09-09T16:40:57.125Z,52.03
2022-09-09T16:41:56.124Z,52.72
2022-09-09T16:42:57.695Z,52.81
2022-09-09T16:43:57.121Z,52.52
2022-09-09T16:44:56.235Z,52.40
2022-09-09T16:45:56.155Z,52.40
2022-09-09T16:47:00.491Z,52.40
2022-09-09T16:47:57.702Z,52.59
2022-09-09T16:48:57.132Z,52.40
2022-09-09T16:49:56.125Z,52.88
2022-09-09T16:50:56.125Z,52.88
2022-09-09T16:51:57.703Z,52.98
2022-09-09T16:52:57.691Z,52.88
2022-09-09T16:53:57.753Z,52.98
2022-09-09T16:54:57.690Z,52.98
2022-09-09T16:55:57.724Z,52.78
2022-09-09T16:56:57.693Z,52.50
2022-09-09T16:57:57.697Z,52.76
2022-09-09T16:58:57.696Z,52.95
2022-09-09T16:59:57.724Z,52.56
2022-09-09T17:00:57.717Z,52.56
2022-09-09T17:01:57.758Z,52.86
2022-09-09T17:02:56.172Z,52.86
2022-09-09T17:04:00.823Z,52.76
2022-09-09T17:04:57.217Z,53.15
2022-09-09T17:05:56.131Z,53.05
2022-09-09T17:06:57.719Z,53.05
2022-09-09T17:07:56.132Z,53.05
2022-09-09T17:08:56.127Z,52.86
2022-09-09T17:09:56.231Z,53.15
2022-09-09T17:10:56.126Z,52.95
2022-09-09T17:11:57.737Z,53.31
2022-09-09T17:12:56.126Z,52.93
2022-09-09T17:13:56.130Z,53.22
2022-09-09T17:14:56.139Z,53.22
2022-09-09T17:16:00.883Z,52.83
2022-09-09T17:17:09.122Z,53.02
2022-09-09T17:17:56.129Z,53.41
2022-09-09T17:18:56.131Z,53.22
2022-09-09T17:19:56.128Z,53.41
2022-09-09T17:20:57.718Z,53.22
2022-09-09T17:22:16.390Z,53.31
2022-09-09T17:22:57.717Z,53.41
2022-09-09T17:23:57.725Z,53.61
2022-09-09T17:24:57.751Z,53.22